LOWI/INN METAR and TAF weather

Enter ICAO airport designator
Station Type Date Time Source
LOWI METAR 2021/01/17 17:50 UTC NOAA

LOWI 171750Z VRB01KT 1800 R08/P1500U R26/P1500U SN FEW006 BKN015 M04/M05 Q1020 R08/19//95 TEMPO 1000 VV010


Station Type Date Time Source
LOWI Decoded METAR 2021/01/17 17:50 UTC NOAA

Innsbruck-Flughafen, Austria (LOWI) 47-16N 011-21E 593M
Jan 17, 2021 - 12:50 PM EST / 2021.01.17 1750 UTC
Wind: Variable at 1 MPH (1 KT):0
Visibility: 1 mile(s):0
Sky conditions: mostly cloudy
Weather: snow
Temperature: 24 F (-4 C)
Dew Point: 23 F (-5 C)
Relative Humidity: 92%
Pressure (altimeter): 30.12 in. Hg (1020 hPa)
ob: LOWI 171750Z VRB01KT 1800 R08/P1500U R26/P1500U SN FEW006 BKN015 M04/M05 Q1020 R08/19//95 TEMPO 1000 VV010
cycle: 18

Station Type Date Time Source
LOWI TAF 2021/01/17 18:18 UTC NOAA

TAF LOWI 171715Z 1718/1818 27003KT 3000 -SN SCT010 BKN030 TX01/1814Z TNM05/1718Z
TEMPO 1718/1806 1200 SN VV010
TEMPO 1806/1810 BKN009
BECMG 1810/1812 9999 NSW

Example: see airport list